Aérodrome :
LOGIN :

S'inscrire | Disclaimer

   EN    FR    IT 

 










Légende :    VFR   VFR Marginal   IFR   IFR Intensif   IFR Très Intensif
Visi : 
Plafond : 
>= 8 km
>= 3000ft
5 à 8 km
1000 à 3000 ft
1500m à 5 km
500 à 1000 ft
800 à 1500m
200 à 500 ft
< 800m
< 200 ft
Symboles :   Orages  Brouillard  Fortes neiges  Fortes précipitations  Vent > 20 kt
SIGMETs :   Divers  Orages  Givrage  Turbulence  Onde Orograph.  Cendres Volcan.







- Altitude de l'aérodrome : 935 ft


EBFS - Florennes

DERNIER METAR :
  • 200055Z AUTO 08004KT 4300 BR OVC075/// M00/M01 Q1015 GRN

METARs EXPIRÉS :
  • 200025Z AUTO VRB01KT 4100 BR OVC070/// M00/M01 Q1015 GRN
  • 200004Z AUTO VRB01KT 3500 BR BKN075/// M00/M01 Q1016 YLO
  • 192333Z AUTO VRB02KT 4000 BR OVC075/// M00/M01 Q1016 GRN
  • 192325Z AUTO VRB01KT 5000 BKN075/// M00/M01 Q1016 WHT
  • 192315Z AUTO VRB01KT 5000 OVC075/// 00/M01 Q1016 WHT
  • 192255Z AUTO VRB02KT 4600 BR BKN070/// OVC085/// M00/M01 Q1016 GRN
  • 192250Z AUTO VRB02KT 4400 BR FEW060/// OVC075/// 00/M01 Q1016 GRN
  • 192236Z AUTO VRB02KT 3500 BR SCT055/// BKN070/// OVC085/// M00/M01 Q1016 YLO
  • 192225Z AUTO VRB02KT 3700 BR OVC055/// 00/M01 Q1016 GRN

TAF TAF EBFS
Valide du 19 à 19h jusqu'au 20 à 07h UTC


191541Z 1919/2007 16006KT 9999 FEW010 BKN020
TEMPO 1919/1923 4500 -RASN SCT010 BKN020
PROB30
TEMPO 1919/1923 2000 -SN SCT008 BKN010
BECMG 1923/2001 14004KT 4000 BR SCT010 BKN035
PROB30
TEMPO 2004/2007 3000 BR SCT060 SCT140
Pas de NOTAMs connus pour ce terrain.



MET'MAP, la Météo Aéronautique d'un coup d'oeil ! - Copyright ORBIFLY Décembre 2007 - Disclaimer

ORBIFLY MET'MAP TEAM :

Programmation & Développement : Alexandra Zaïnal
Conception & Développement : Baudouin d'Aumeries
Co-Programmation & Développement : Marc-Olivier Méhu
Soutien technique & logistique : Manuel Goepfert

Contact : metmap@orbifly.com




SOURCES & CREDITS :

   NOAA